Flight Track Log - Related Links

Times and Time Zones

All times are in EDT time to prevent confusion due to time zone crossing. See the EJA922 flight status page for this flight to view local times or setup timezone preferences in your user account.

Time Position Orientation Groundspeed Altitude Reporting Facility
EDT Latitude Longitude Course Direction KTS MPH feet Rate Location/Type
Mon 09:45:45 AM 40.8833 -74.0500 157° South 168 193 1,600  Level New York TRACON
Mon 09:46:45 AM 40.9167 -74.0667 339° North 203 234 2,200 1,400 Climbing New York TRACON
Mon 09:47:45 AM 40.9000 -74.1500 255° West 248 285 4,400 1,900 Climbing New York TRACON
Mon 09:48:45 AM 40.8333 -74.2000 210° Southwest 289 333 6,000 1,500 Climbing New York TRACON
Mon 09:49:45 AM 40.7500 -74.2167 189° South 275 316 7,400 2,250 Climbing New York TRACON
Mon 09:50:45 AM 40.6833 -74.2333 191° South 288 331 10,500 2,949 Climbing New York TRACON
Mon 09:51:00 AM 40.3186 -74.1510 157° South  Level FlightAware Approximate
Mon 09:52:40 AM 40.5358 -74.2336 180° South 299 344 16,000  Level New York Center
Mon 09:53:41 AM 40.4425 -74.2181 173° South 327 376 17,200 2,150 Climbing New York Center
Mon 09:54:40 AM 40.3361 -74.2208 181° South 337 388 20,300 2,550 Climbing New York Center
Mon 09:55:41 AM 40.2442 -74.2353 187° South 349 402 22,300 1,815 Climbing New York Center
Mon 09:56:39 AM 40.1653 -74.2939 210° Southwest 330 380 23,900 604 Climbing New York Center
Mon 09:58:30 AM 40.0225 -74.4347 217° Southwest 350 403 24,000 421 Climbing Washington Center
Mon 09:59:30 AM 39.9461 -74.5089 217° Southwest 350 403 25,100 2,269 Climbing Washington Center
Mon 10:00:29 AM 39.8717 -74.5806 216° Southwest 350 403 28,500 2,350 Climbing Washington Center
Mon 10:01:30 AM 39.8014 -74.6464 216° Southwest 329 379 29,800 1,230 Climbing Washington Center
Mon 10:02:31 AM 39.7269 -74.7172 216° Southwest 329 379 31,000 1,169 Climbing Washington Center
Mon 10:03:28 AM 39.6503 -74.7858 215° Southwest 335 386 32,100 1,119 Climbing Washington Center
Mon 10:04:29 AM 39.5717 -74.8592 216° Southwest 340 391 33,200 1,140 Climbing Washington Center
Mon 10:05:29 AM 39.4908 -74.9356 216° Southwest 352 405 34,400 1,091 Climbing Washington Center
Mon 10:06:30 AM 39.4100 -75.0114 216° Southwest 359 413 35,400 1,033 Climbing Washington Center
Mon 10:07:31 AM 39.3228 -75.0900 215° Southwest 371 427 36,500 942 Climbing Washington Center
Mon 10:08:31 AM 39.2250 -75.1442 203° Southwest 379 436 37,300 814 Climbing Washington Center
Mon 10:09:29 AM 39.1253 -75.2011 204° Southwest 389 448 38,100 800 Climbing Washington Center
Mon 10:10:31 AM 39.0211 -75.2497 200° South 394 453 38,900 689 Climbing Washington Center
Mon 10:11:31 AM 38.9192 -75.3061 203° Southwest 401 461 39,500 555 Climbing Washington Center
Mon 10:12:30 AM 38.8172 -75.3572 201° Southwest 401 461 40,000 252 Climbing Washington Center
Mon 10:13:30 AM 38.7131 -75.4186 205° Southwest 401 461 40,000  Level Washington Center
Mon 10:14:31 AM 38.6047 -75.4694 200° South 408 470 40,000  Level Washington Center
Mon 10:15:29 AM 38.4922 -75.5281 202° Southwest 420 483 40,000  Level Washington Center
Mon 10:16:29 AM 38.3836 -75.5864 203° Southwest 430 495 40,000  Level Washington Center
Mon 10:17:29 AM 38.2669 -75.6394 200° South 435 501 40,000  Level Washington Center
Mon 10:18:30 AM 38.1564 -75.6972 202° Southwest 435 501 40,000  Level Washington Center
Mon 10:19:31 AM 38.0436 -75.7553 202° Southwest 435 501 40,000  Level Washington Center
Mon 10:20:31 AM 37.9519 -75.8183 208° Southwest 430 495 40,000  Level Washington Center
Mon 10:21:29 AM 37.8308 -75.8836 203° Southwest 430 495 40,000  Level Washington Center
Mon 10:22:29 AM 37.7389 -75.9464 208° Southwest 425 489 40,000  Level Washington Center
Mon 10:23:30 AM 37.6322 -76.0114 206° Southwest 420 483 40,000  Level Washington Center
Mon 10:24:29 AM 37.5256 -76.0764 206° Southwest 420 483 40,000  Level Washington Center
Mon 10:25:29 AM 37.4192 -76.1358 204° Southwest 420 483 40,000  Level Washington Center
Mon 10:26:30 AM 37.3019 -76.2003 204° Southwest 425 489 40,000  Level Washington Center
Mon 10:27:30 AM 37.1972 -76.2619 205° Southwest 425 489 40,000  Level Washington Center
Mon 10:28:29 AM 37.0925 -76.3208 204° Southwest 425 489 40,000  Level Washington Center
Mon 10:29:30 AM 36.9797 -76.3692 199° South 425 489 40,000  Level Washington Center
Mon 10:30:31 AM 36.8689 -76.4175 199° South 425 489 40,000  Level Washington Center
Mon 10:31:29 AM 36.7558 -76.4681 200° South 430 495 40,000 -50 Level Washington Center
Mon 10:32:31 AM 36.6575 -76.5136 200° South 430 495 39,900  Descending Washington Center
Mon 10:33:31 AM 36.5464 -76.5614 199° South 430 495 40,000 50 Climbing Washington Center
Mon 10:34:30 AM 36.4208 -76.6117 198° South 430 495 40,000 -50 Level Washington Center
Mon 10:35:30 AM 36.3100 -76.6592 199° South 425 489 39,900  Descending Washington Center
Mon 10:36:30 AM 36.1989 -76.7064 199° South 425 489 40,000 50 Climbing Washington Center
Mon 10:37:31 AM 36.0878 -76.7539 199° South 425 489 40,000 -50 Level Washington Center
Mon 10:38:29 AM 35.9767 -76.8033 200° South 425 489 39,900 -50 Descending Washington Center
Mon 10:39:30 AM 35.8658 -76.8481 198° South 425 489 39,900  Level Washington Center
Mon 10:40:29 AM 35.7525 -76.8922 198° South 425 489 39,900  Level Washington Center
Mon 10:41:29 AM 35.6414 -76.9417 200° South 425 489 39,900 50 Level Washington Center
Mon 10:42:30 AM 35.5428 -76.9833 199° South 425 489 40,000 248 Climbing Washington Center
Mon 10:43:30 AM 35.4317 -77.0297 199° South 425 489 40,400 694 Climbing Washington Center
Mon 10:44:31 AM 35.3228 -77.0736 198° South 425 489 41,400 992 Climbing Washington Center
Mon 10:45:31 AM 35.2178 -77.1175 199° South 414 476 42,400 807 Climbing Washington Center
Mon 10:46:30 AM 35.1131 -77.1611 199° South 401 461 43,000 300 Climbing Washington Center
Mon 10:47:31 AM 35.0103 -77.2022 198° South 401 461 43,000  Level Washington Center
Mon 10:48:28 AM 34.8989 -77.2508 200° South 412 474 43,000  Level Washington Center
Mon 10:49:29 AM 34.7878 -77.2967 199° South 417 480 43,000 -49 Level Washington Center
Mon 10:50:30 AM 34.6744 -77.3422 198° South 422 486 42,900  Descending Washington Center
Mon 10:51:29 AM 34.5611 -77.3903 199° South 429 494 43,000 50 Climbing Washington Center
Mon 10:52:30 AM 34.4433 -77.4356 198° South 435 501 43,000  Level Washington Center
Mon 10:53:30 AM 34.3300 -77.4833 199° South 440 506 43,000  Level Washington Center
Mon 10:55:06 AM 34.1389 -77.5614 199° South 443 510 43,000  Level Jacksonville Center
Mon 10:56:06 AM 34.0239 -77.6061 198° South 443 510 43,000  Level Jacksonville Center
Mon 10:57:06 AM 33.9047 -77.6508 197° South 448 516 43,000  Level Jacksonville Center
Mon 10:58:06 AM 33.7878 -77.6978 198° South 448 516 43,000  Level Jacksonville Center
Mon 10:59:06 AM 33.6525 -77.7531 199° South 461 531 43,000  Level Jacksonville Center
Mon 11:00:06 AM 33.5353 -77.7997 198° South 461 531 43,000  Level Jacksonville Center
Mon 11:01:06 AM 33.4142 -77.8489 199° South 456 525 43,000  Level Jacksonville Center
Mon 11:02:06 AM 33.2931 -77.8956 198° South 456 525 43,000  Level Jacksonville Center
Mon 11:03:06 AM 33.1719 -77.9469 200° South 456 525 43,000  Level Jacksonville Center
Mon 11:04:06 AM 33.0506 -77.9933 198° South 456 525 43,000  Level Jacksonville Center
Mon 11:05:06 AM 32.9314 -78.0394 198° South 456 525 43,000  Level Jacksonville Center
Mon 11:06:06 AM 32.8100 -78.0856 198° South 456 525 43,000  Level Jacksonville Center
Mon 11:07:06 AM 32.6886 -78.1339 199° South 456 525 43,000  Level Jacksonville Center
Mon 11:08:06 AM 32.5650 -78.1775 197° South 456 525 43,000  Level Jacksonville Center
Mon 11:09:06 AM 32.4458 -78.2278 200° South 456 525 43,000  Level Jacksonville Center
Mon 11:10:06 AM 32.3369 -78.2703 198° South 456 525 43,000  Level Jacksonville Center
Mon 11:11:06 AM 32.2114 -78.3208 199° South 461 531 43,000  Level Jacksonville Center
Mon 11:12:06 AM 32.0939 -78.3661 198° South 461 531 43,000  Level Jacksonville Center
Mon 11:13:06 AM 31.9683 -78.4136 198° South 461 531 43,000  Level Jacksonville Center
Mon 11:14:06 AM 31.8467 -78.4589 198° South 461 531 43,000 -50 Level Jacksonville Center
Mon 11:15:06 AM 31.7233 -78.5086 199° South 461 531 42,900  Descending Jacksonville Center
Mon 11:16:06 AM 31.5997 -78.5561 198° South 466 536 43,000  Climbing Jacksonville Center
Mon 11:17:06 AM 31.4739 -78.6008 197° South 466 536 42,900  Descending Jacksonville Center
Mon 11:18:06 AM 31.3483 -78.6528 199° South 471 542 43,000 50 Climbing Jacksonville Center
Mon 11:19:06 AM 31.2225 -78.6997 198° South 476 548 43,000 -50 Level Jacksonville Center
Mon 11:20:06 AM 31.1028 -78.7439 198° South 476 548 42,900  Descending Jacksonville Center
Mon 11:21:06 AM 30.9750 -78.7931 198° South 446 513 43,000  Climbing Jacksonville Center
Mon 11:22:06 AM 30.8664 -78.8583 207° Southwest 435 501 42,900  Descending Jacksonville Center
Mon 11:23:06 AM 30.7578 -78.9233 207° Southwest 448 516 43,000 34 Climbing Jacksonville Center
Mon 11:25:05 AM 30.5478 -79.0500 207° Southwest 432 497 43,000  Level Miami Center
Mon 11:26:07 AM 30.4308 -79.0967 199° South 438 504 43,000 -48 Level Miami Center
Mon 11:27:09 AM 30.3092 -79.1408 197° South 452 520 42,900  Descending Miami Center
Mon 11:28:11 AM 30.1883 -79.1861 198° South 454 522 43,000 48 Climbing Miami Center
Mon 11:29:14 AM 30.0647 -79.2311 197° South 459 528 43,000  Level Miami Center
Mon 11:30:16 AM 29.9308 -79.2786 197° South 459 528 43,000  Level Miami Center
Mon 11:31:18 AM 29.8089 -79.3244 198° South 460 529 43,000  Level Miami Center
Mon 11:32:20 AM 29.6861 -79.3689 197° South 460 529 43,000  Level Miami Center
Mon 11:33:23 AM 29.5392 -79.4219 197° South 462 532 43,000  Level Miami Center
Mon 11:34:25 AM 29.4164 -79.4669 198° South 462 532 43,000  Level Miami Center
Mon 11:35:27 AM 29.2922 -79.5119 198° South 463 533 43,000  Level Miami Center
Mon 11:36:29 AM 29.1683 -79.5572 198° South 465 535 43,000  Level Miami Center
Mon 11:37:32 AM 29.0439 -79.6011 197° South 465 535 43,000  Level Miami Center
Mon 11:38:34 AM 28.9189 -79.6458 197° South 467 537 43,000  Level Miami Center
Mon 11:39:36 AM 28.7692 -79.6992 197° South 467 537 43,000  Level Miami Center
Mon 11:40:39 AM 28.6431 -79.7442 197° South 471 542 43,000  Level Miami Center
Mon 11:41:41 AM 28.5175 -79.7886 197° South 471 542 43,000  Level Miami Center
Mon 11:42:43 AM 28.3917 -79.8342 198° South 471 542 43,000  Level Miami Center
Mon 11:43:45 AM 28.2656 -79.8778 197° South 471 542 43,000  Level Miami Center
Mon 11:44:48 AM 28.1208 -79.9292 197° South 472 543 43,000  Level Miami Center
Mon 11:45:50 AM 27.9894 -79.9756 197° South 472 543 43,000  Level Miami Center
Mon 11:46:52 AM 27.8622 -80.0206 197° South 472 543 43,000  Level Miami Center
Mon 11:47:54 AM 27.7361 -80.0650 197° South 472 543 43,000  Level Miami Center
Mon 11:48:56 AM 27.6114 -80.1078 197° South 468 539 43,000  Level Miami Center
Mon 11:49:59 AM 27.4867 -80.1517 197° South 467 537 43,000 -48 Level Miami Center
Mon 11:51:01 AM 27.3631 -80.1950 197° South 466 536 42,900  Descending Miami Center
Mon 11:52:03 AM 27.2153 -80.2458 197° South 463 533 43,000 48 Climbing Miami Center
Mon 11:53:05 AM 27.0947 -80.2883 197° South 458 527 43,000  Level Miami Center
Mon 11:54:08 AM 26.9753 -80.3292 197° South 451 519 43,000  Level Miami Center
Mon 11:55:10 AM 26.8550 -80.3697 197° South 450 518 43,000  Level Miami Center
Mon 11:56:12 AM 26.7128 -80.4194 197° South 449 517 43,000  Level Miami Center
Mon 11:57:14 AM 26.5931 -80.4603 197° South 450 518 43,000  Level Miami Center
Mon 11:58:17 AM 26.4636 -80.5056 197° South 451 519 43,000  Level Miami Center
Mon 11:59:19 AM 26.3439 -80.5467 197° South 451 519 43,000  Level Miami Center
Mon 12:00:21 PM 26.2314 -80.5850 197° South 449 517 43,000  Level Miami Center
Mon 12:01:24 PM 26.1128 -80.6244 197° South 448 516 43,000 -48 Level Miami Center
Mon 12:02:26 PM 25.9928 -80.6636 196° South 448 516 42,900  Descending Miami Center
Mon 12:03:28 PM 25.8456 -80.7036 194° South 455 524 43,000 48 Climbing Miami Center
Mon 12:04:30 PM 25.7233 -80.7381 194° South 460 529 43,000  Level Miami Center
Mon 12:05:33 PM 25.6003 -80.7708 194° South 460 529 43,000  Level Miami Center
Mon 12:06:35 PM 25.4519 -80.8111 194° South 461 531 43,000  Level Miami Center
Mon 12:07:37 PM 25.3256 -80.8456 194° South 464 534 43,000  Level Miami Center
Mon 12:08:39 PM 25.1978 -80.8808 194° South 469 540 43,000  Level Miami Center
Mon 12:09:41 PM 25.0706 -80.9133 193° South 469 540 43,000  Level Miami Center
Mon 12:10:44 PM 24.9444 -80.9467 193° South 469 540 43,000  Level Miami Center
Mon 12:11:46 PM 24.8175 -80.9800 193° South 469 540 43,000  Level Miami Center
Mon 12:12:48 PM 24.6658 -81.0194 193° South 469 540 43,000 -242 Level Miami Center
Mon 12:13:50 PM 24.5381 -81.0544 194° South 469 540 42,500 -774 Descending Miami Center
Mon 12:14:52 PM 24.4089 -81.0878 193° South 472 543 41,400 -720 Descending Miami Center
Mon 12:15:55 PM 24.2792 -81.1222 194° South 478 550 41,000 -240 Descending Miami Center
Mon 12:16:57 PM 24.1489 -81.1581 194° South 481 554 40,900  Descending Miami Center
Mon 12:17:59 PM 23.9889 -81.1986 193° South 489 563 41,000 97 Climbing Miami Center
Mon 12:19:00 PM 23.8693 -81.2297 193° South  Level FlightAware Approximate
Mon 12:26:00 PM 23.0458 -81.4425 193° South  Level FlightAware Approximate
Mon 12:27:00 PM 22.9278 -81.4796 197° South  Level FlightAware Approximate
Mon 12:28:00 PM 22.8121 -81.5180 197° South  Level FlightAware Approximate
Mon 12:29:00 PM 22.6965 -81.5563 197° South  Level FlightAware Approximate
Mon 12:30:00 PM 22.5809 -81.5945 197° South  Level FlightAware Approximate
Mon 12:31:00 PM 22.4653 -81.6327 197° South  Level FlightAware Approximate
Mon 12:32:00 PM 22.3496 -81.6709 197° South  Level FlightAware Approximate
Mon 12:33:00 PM 22.2340 -81.7089 197° South  Level FlightAware Approximate
Mon 12:34:00 PM 22.1183 -81.7469 197° South  Level FlightAware Approximate
Mon 12:35:00 PM 22.0026 -81.7849 197° South  Level FlightAware Approximate
Mon 12:36:00 PM 21.8869 -81.8227 197° South  Level FlightAware Approximate
Mon 12:37:00 PM 21.7713 -81.8606 197° South  Level FlightAware Approximate
Mon 12:38:00 PM 21.6556 -81.8983 197° South  Level FlightAware Approximate
Mon 12:39:00 PM 21.5399 -81.9360 197° South  Level FlightAware Approximate
Mon 12:40:00 PM 21.4242 -81.9736 197° South  Level FlightAware Approximate
Mon 12:41:00 PM 21.3084 -82.0112 197° South  Level FlightAware Approximate
Mon 12:42:00 PM 21.1927 -82.0487 197° South  Level FlightAware Approximate
Mon 12:43:00 PM 21.0770 -82.0862 197° South  Level FlightAware Approximate
Mon 12:44:00 PM 20.9612 -82.1236 197° South  Level FlightAware Approximate
Mon 12:45:00 PM 20.8454 -82.1609 197° South  Level FlightAware Approximate
Mon 12:46:00 PM 20.7297 -82.1982 197° South  Level FlightAware Approximate
Mon 12:47:00 PM 20.6139 -82.2355 197° South  Level FlightAware Approximate
Mon 12:48:00 PM 20.4981 -82.2726 197° South  Level FlightAware Approximate
Mon 12:49:00 PM 20.3823 -82.3097 197° South  Level FlightAware Approximate
Mon 12:50:00 PM 20.2666 -82.3468 197° South  Level FlightAware Approximate
Mon 12:51:00 PM 20.1507 -82.3838 197° South  Level FlightAware Approximate
Mon 12:52:00 PM 20.0338 -82.4115 198° South  Level FlightAware Approximate
Mon 12:53:00 PM 19.9189 -82.4517 198° South  Level FlightAware Approximate
Mon 12:54:00 PM 19.8041 -82.4917 198° South  Level FlightAware Approximate
Mon 12:55:00 PM 19.6892 -82.5318 198° South  Level FlightAware Approximate
Mon 12:56:00 PM 19.5743 -82.5718 198° South  Level FlightAware Approximate
Mon 12:57:00 PM 19.4594 -82.6117 198° South  Level FlightAware Approximate
Mon 12:58:00 PM 19.3445 -82.6515 198° South  Level FlightAware Approximate
Mon 12:59:00 PM 19.2296 -82.6914 198° South  Level FlightAware Approximate
Mon 01:00:00 PM 19.1147 -82.7311 198° South  Level FlightAware Approximate
Mon 01:01:00 PM 18.9998 -82.7708 198° South  Level FlightAware Approximate
Mon 01:02:00 PM 18.8848 -82.8104 198° South  Level FlightAware Approximate
Mon 01:03:00 PM 18.7699 -82.8500 198° South  Level FlightAware Approximate
Mon 01:04:00 PM 18.6549 -82.8896 198° South  Level FlightAware Approximate
Mon 01:05:00 PM 18.5400 -82.9290 198° South  Level FlightAware Approximate
Mon 01:06:00 PM 18.4250 -82.9685 198° South  Level FlightAware Approximate
Mon 01:07:00 PM 18.3100 -83.0078 198° South  Level FlightAware Approximate
Mon 01:08:00 PM 18.1950 -83.0472 198° South  Level FlightAware Approximate
Mon 01:09:00 PM 18.0800 -83.0864 198° South  Level FlightAware Approximate
Mon 01:10:00 PM 17.9650 -83.1257 198° South  Level FlightAware Approximate
Mon 01:11:00 PM 17.8500 -83.1648 198° South  Level FlightAware Approximate
Mon 01:12:00 PM 17.7350 -83.2039 198° South  Level FlightAware Approximate
Mon 01:13:00 PM 17.6200 -83.2430 198° South  Level FlightAware Approximate
Mon 01:14:00 PM 17.5049 -83.2820 198° South  Level FlightAware Approximate
Mon 01:15:00 PM 17.3899 -83.3210 198° South  Level FlightAware Approximate
Mon 01:16:00 PM 17.2749 -83.3599 198° South  Level FlightAware Approximate
Mon 01:17:00 PM 17.1598 -83.3988 198° South  Level FlightAware Approximate
Mon 01:18:00 PM 17.0447 -83.4376 198° South  Level FlightAware Approximate
Mon 01:19:00 PM 16.9297 -83.4764 198° South  Level FlightAware Approximate
Mon 01:20:00 PM 16.8146 -83.5151 198° South  Level FlightAware Approximate
Mon 01:21:00 PM 16.6995 -83.5538 198° South  Level FlightAware Approximate
Mon 01:22:00 PM 16.5844 -83.5924 198° South  Level FlightAware Approximate
Mon 01:23:00 PM 16.4693 -83.6310 198° South  Level FlightAware Approximate
Mon 01:24:00 PM 16.3542 -83.6695 198° South  Level FlightAware Approximate
Mon 01:25:00 PM 16.2391 -83.7081 198° South  Level FlightAware Approximate
Mon 01:26:00 PM 16.1240 -83.7465 198° South  Level FlightAware Approximate
Mon 01:27:00 PM 16.0088 -83.7849 198° South  Level FlightAware Approximate
Mon 01:28:00 PM 15.8937 -83.8233 198° South  Level FlightAware Approximate
Mon 01:29:00 PM 15.7786 -83.8616 198° South  Level FlightAware Approximate
Mon 01:30:00 PM 15.6634 -83.8999 198° South  Level FlightAware Approximate
Mon 01:31:00 PM 15.5483 -83.9381 198° South  Level FlightAware Approximate
Mon 01:32:00 PM 15.4331 -83.9763 198° South  Level FlightAware Approximate
Mon 01:33:00 PM 15.3179 -84.0144 198° South  Level FlightAware Approximate
Mon 01:34:00 PM 15.2028 -84.0525 198° South  Level FlightAware Approximate
Mon 01:35:00 PM 15.0876 -84.0906 198° South  Level FlightAware Approximate
Mon 01:36:00 PM 14.9724 -84.1286 198° South  Level FlightAware Approximate
Mon 01:37:00 PM 14.8572 -84.1666 198° South  Level FlightAware Approximate
Mon 01:38:00 PM 14.7420 -84.2045 198° South  Level FlightAware Approximate
Mon 01:39:00 PM 14.6268 -84.2424 198° South  Level FlightAware Approximate
Mon 01:40:00 PM 14.5116 -84.2803 198° South  Level FlightAware Approximate
Mon 01:41:00 PM 14.3964 -84.3181 198° South  Level FlightAware Approximate
Mon 01:42:00 PM 14.2810 -84.3553 197° South  Level FlightAware Approximate
Mon 01:43:00 PM 14.1654 -84.3920 197° South  Level FlightAware Approximate
Mon 01:44:00 PM 14.0499 -84.4287 197° South  Level FlightAware Approximate
Mon 01:45:00 PM 13.9343 -84.4654 197° South  Level FlightAware Approximate
Mon 01:46:00 PM 13.8188 -84.5020 197° South  Level FlightAware Approximate
Mon 01:47:00 PM 13.7032 -84.5386 197° South  Level FlightAware Approximate
Mon 01:48:00 PM 13.5877 -84.5752 197° South  Level FlightAware Approximate
Mon 01:49:00 PM 13.4721 -84.6117 197° South  Level FlightAware Approximate
Mon 01:50:00 PM 13.3565 -84.6482 197° South  Level FlightAware Approximate
Mon 01:51:00 PM 13.2409 -84.6846 197° South  Level FlightAware Approximate
Mon 01:52:00 PM 13.1254 -84.7210 197° South  Level FlightAware Approximate
Mon 01:53:00 PM 13.0099 -84.7578 198° South  Level FlightAware Approximate
Mon 01:54:00 PM 12.8949 -84.7962 198° South  Level FlightAware Approximate
Mon 01:55:00 PM 12.7799 -84.8345 198° South  Level FlightAware Approximate
Mon 01:56:00 PM 12.6650 -84.8728 198° South  Level FlightAware Approximate
Mon 01:57:00 PM 12.5492 -84.9086 196° South  Level FlightAware Approximate
Mon 01:58:00 PM 12.4335 -84.9444 198° South  Level FlightAware Approximate
Mon 01:59:00 PM 12.3186 -84.9827 198° South  Level FlightAware Approximate
Mon 02:00:00 PM 12.2025 -85.0170 199° South  Level FlightAware Approximate
Mon 02:01:00 PM 12.0884 -85.0577 199° South  Level FlightAware Approximate
Mon 02:02:00 PM 11.9734 -85.0957 196° South  Level FlightAware Approximate
Mon 02:03:00 PM 11.8570 -85.1290 196° South  Level FlightAware Approximate
Mon 02:04:00 PM 11.7412 -85.1646 199° South  Level FlightAware Approximate
Mon 02:05:00 PM 11.6267 -85.2043 199° South  Level FlightAware Approximate
Mon 02:06:00 PM 11.5123 -85.2439 199° South  Level FlightAware Approximate
Mon 02:07:00 PM 11.3978 -85.2835 199° South  Level FlightAware Approximate
Mon 02:08:00 PM 11.2824 -85.3203 196° South  Level FlightAware Approximate
Mon 02:09:00 PM 11.1666 -85.3556 198° South  Level FlightAware Approximate
Mon 02:10:00 PM 11.0517 -85.3939 198° South  Level FlightAware Approximate
Mon 02:11:00 PM 10.9363 -85.4308 196° South  Level FlightAware Approximate
Mon 02:12:00 PM 10.8203 -85.4656 196° South  Level FlightAware Approximate
Mon 02:13:00 PM 10.7055 -85.5011 201° Southwest  Level FlightAware Approximate
Mon 02:14:00 PM 10.5890 -85.5322 191° South  Level FlightAware Approximate
Mon 02:15:00 PM 10.5833 -85.5333 North  Level FlightAware Approximate
Mon 02:16:00 PM 10.5933 -85.5444 North  Level Estimated
Mon 02:17:00 PM 10.5933 -85.5444 North  Level Estimated
Mon 02:18:00 PM 10.5933 -85.5444 North  Level Estimated
Mon 02:19:00 PM 10.5933 -85.5444 North  Level Estimated
Mon 02:20:00 PM 10.5933 -85.5444 North  Level Estimated
Mon 02:21:00 PM 10.5933 -85.5444 North  Level Estimated
Mon 02:22:00 PM 10.5933 -85.5444 North  Level Estimated
Mon 02:23:00 PM 10.5933 -85.5444 North  Level Estimated
Mon 02:24:00 PM 10.5933 -85.5444 North  Level Estimated
Mon 02:25:00 PM 10.5933 -85.5444 North  Level Estimated
Mon 02:26:00 PM 10.5933 -85.5444 North  Level Estimated
Mon 02:27:00 PM 10.5933 -85.5444 North  Level Estimated
Mon 02:28:00 PM 10.5933 -85.5444 North  Level Estimated

Login

Don't have an account? Register now (free) for customized features, flight alerts, and more!